Mullally, Nebraska
Current Conditions -  °F | °C
As of 12:55 AM on Friday 19 Dec 2014 (Local Time) from KHDE Reporting Station
Overcast Overcast  
Wind Chill: 22°   Ceiling: 600
Heat Index: 29°   Visibility: 7mi
Dew Point: 28°   Wind: 7mph
Humidity: 93%   Direction: 250°WSW
Pressure: 30.16"   Gusts: NA
Location:  40.1316°N, 99.2306°W
Report Text: KHDE 190655Z AUTO 25006KT 7SM OVC006 M01/M02 A3016 RMK AO2 T10151025
Loading
Personal Weather Stations






























Interactive Weather Map New forecast layout! Learn more

10-Day Weather Forecast

Advertisements
Track Severe Weather on mobile